createdAt,value
2018-12-19T00:00:12.676Z,32.70
2018-12-19T00:01:12.666Z,33.00
2018-12-19T00:02:12.657Z,34.30
2018-12-19T00:03:12.647Z,32.60
2018-12-19T00:04:12.642Z,32.90
2018-12-19T00:05:12.624Z,33.20
2018-12-19T00:06:12.618Z,34.00
2018-12-19T00:07:12.603Z,31.80
2018-12-19T00:08:12.593Z,32.90
2018-12-19T00:09:12.586Z,31.80
2018-12-19T00:10:12.582Z,32.40
2018-12-19T00:11:12.561Z,33.40
2018-12-19T00:12:12.551Z,32.30
2018-12-19T00:13:12.543Z,31.00
2018-12-19T00:14:12.530Z,31.30
2018-12-19T00:15:12.520Z,31.70
2018-12-19T00:16:12.512Z,31.30
2018-12-19T00:17:12.499Z,31.90
2018-12-19T00:18:12.490Z,30.50
2018-12-19T00:19:12.477Z,30.70
2018-12-19T00:20:12.469Z,31.00
2018-12-19T00:21:12.457Z,30.10
2018-12-19T00:22:12.445Z,31.20
2018-12-19T00:23:12.489Z,31.40
2018-12-19T00:24:12.423Z,30.50
2018-12-19T00:25:12.415Z,31.10
2018-12-19T00:26:12.403Z,30.60
2018-12-19T00:27:12.393Z,28.90
2018-12-19T00:28:12.382Z,30.90
2018-12-19T00:29:12.374Z,31.10
2018-12-19T00:30:12.362Z,30.40
2018-12-19T00:31:12.352Z,30.90
2018-12-19T00:32:12.340Z,30.90
2018-12-19T00:33:12.333Z,31.00
2018-12-19T00:34:12.321Z,31.30
2018-12-19T00:35:12.308Z,29.60
2018-12-19T00:36:12.297Z,32.20
2018-12-19T00:37:12.291Z,31.40
2018-12-19T00:38:12.279Z,29.30
2018-12-19T00:39:12.271Z,31.70
2018-12-19T00:40:12.256Z,30.50
2018-12-19T00:41:12.246Z,28.70
2018-12-19T00:42:12.236Z,28.80
2018-12-19T00:43:12.228Z,28.40
2018-12-19T00:44:12.214Z,29.30
2018-12-19T00:45:12.204Z,28.80
2018-12-19T00:46:12.196Z,28.00
2018-12-19T00:47:12.185Z,28.10
2018-12-19T00:48:12.171Z,27.40
2018-12-19T00:49:12.166Z,27.00
2018-12-19T00:50:12.152Z,28.40
2018-12-19T00:51:12.143Z,28.70
2018-12-19T00:52:12.134Z,27.20
2018-12-19T00:53:12.120Z,27.90
2018-12-19T00:54:12.109Z,26.80
2018-12-19T00:55:12.152Z,27.50
2018-12-19T00:56:12.090Z,27.50
2018-12-19T00:57:12.080Z,28.70
2018-12-19T00:58:12.072Z,26.30
2018-12-19T00:59:12.060Z,27.00
2018-12-19T01:00:12.046Z,28.00
2018-12-19T01:01:12.036Z,28.10
2018-12-19T01:02:12.030Z,28.30
2018-12-19T01:03:12.018Z,27.60
2018-12-19T01:04:12.004Z,28.50
2018-12-19T01:05:11.993Z,27.20
2018-12-19T01:06:11.994Z,27.70
2018-12-19T01:07:11.973Z,28.10
2018-12-19T01:08:11.962Z,27.20
2018-12-19T01:09:15.878Z,27.40
2018-12-19T01:10:11.944Z,26.30
2018-12-19T01:11:11.937Z,26.90
2018-12-19T01:12:11.920Z,28.10
2018-12-19T01:13:11.914Z,26.50
2018-12-19T01:14:11.901Z,27.30
2018-12-19T01:15:11.896Z,27.60
2018-12-19T01:16:11.878Z,26.90
2018-12-19T01:17:11.869Z,28.40
2018-12-19T01:18:11.858Z,28.20
2018-12-19T01:19:11.847Z,27.80
2018-12-19T01:20:11.842Z,28.50
2018-12-19T01:21:11.827Z,28.50
2018-12-19T01:22:11.816Z,27.60
2018-12-19T01:23:11.805Z,28.00
2018-12-19T01:24:11.794Z,28.40
2018-12-19T01:25:11.783Z,27.30
2018-12-19T01:26:11.775Z,28.10
2018-12-19T01:27:11.762Z,28.30
2018-12-19T01:28:11.752Z,27.00
2018-12-19T01:29:11.741Z,27.10
2018-12-19T01:30:11.730Z,26.60
2018-12-19T01:31:11.725Z,26.40
2018-12-19T01:32:11.709Z,28.10
2018-12-19T01:33:11.702Z,27.30
2018-12-19T01:34:11.689Z,28.30
2018-12-19T01:35:11.678Z,27.60
2018-12-19T01:36:11.679Z,26.40
2018-12-19T01:37:11.657Z,28.10
2018-12-19T01:38:11.670Z,27.80
2018-12-19T01:39:11.639Z,27.30
2018-12-19T01:40:11.626Z,27.10
2018-12-19T01:41:11.616Z,27.50
2018-12-19T01:42:11.605Z,28.30
2018-12-19T01:43:11.595Z,27.50
2018-12-19T01:44:11.589Z,28.60
2018-12-19T01:45:11.576Z,27.80
2018-12-19T01:46:11.564Z,28.90
2018-12-19T01:47:11.554Z,28.60
2018-12-19T01:48:11.543Z,28.60
2018-12-19T01:49:11.534Z,28.30
2018-12-19T01:50:11.520Z,27.90
2018-12-19T01:51:11.515Z,27.20
2018-12-19T01:52:11.500Z,26.90
2018-12-19T01:53:11.489Z,27.00
2018-12-19T01:54:11.479Z,30.20
2018-12-19T01:55:11.472Z,28.80
2018-12-19T01:56:11.459Z,28.10
2018-12-19T01:57:11.454Z,27.00
2018-12-19T01:58:11.436Z,28.40
2018-12-19T01:59:11.428Z,25.90
2018-12-19T02:00:11.419Z,27.50
2018-12-19T02:01:11.406Z,29.20
2018-12-19T02:02:11.403Z,27.40
2018-12-19T02:03:11.385Z,26.00
2018-12-19T02:04:11.373Z,27.30
2018-12-19T02:05:11.365Z,26.90
2018-12-19T02:06:11.353Z,26.90
2018-12-19T02:07:11.343Z,27.70
2018-12-19T02:08:11.331Z,28.80
2018-12-19T02:09:11.322Z,26.80
2018-12-19T02:10:11.312Z,27.80
2018-12-19T02:11:11.305Z,27.30
2018-12-19T02:12:11.292Z,28.40
2018-12-19T02:13:11.279Z,26.20
2018-12-19T02:14:11.270Z,27.30
2018-12-19T02:15:11.259Z,27.60
2018-12-19T02:16:11.249Z,26.80
2018-12-19T02:17:11.241Z,26.90
2018-12-19T02:18:11.228Z,28.50
2018-12-19T02:19:11.216Z,27.90
2018-12-19T02:20:11.206Z,26.30
2018-12-19T02:21:11.197Z,28.60
2018-12-19T02:22:11.186Z,27.50
2018-12-19T02:23:11.174Z,26.90
2018-12-19T02:24:11.165Z,29.20
2018-12-19T02:25:11.158Z,26.80
2018-12-19T02:26:11.146Z,26.30
2018-12-19T02:27:11.134Z,26.70
2018-12-19T02:28:11.121Z,26.40
2018-12-19T02:29:11.112Z,27.40
2018-12-19T02:30:11.106Z,25.30
2018-12-19T02:31:11.092Z,25.10
2018-12-19T02:32:11.082Z,25.40
2018-12-19T02:33:11.073Z,26.30
2018-12-19T02:34:11.061Z,27.20
2018-12-19T02:35:11.047Z,27.70
2018-12-19T02:36:11.044Z,27.00
2018-12-19T02:37:11.029Z,27.60
2018-12-19T02:38:11.018Z,25.30
2018-12-19T02:39:11.009Z,26.60
2018-12-19T02:40:10.996Z,26.80
2018-12-19T02:41:10.986Z,25.00
2018-12-19T02:42:10.976Z,26.20
2018-12-19T02:43:10.966Z,27.40
2018-12-19T02:44:10.955Z,27.30
2018-12-19T02:45:10.944Z,27.60
2018-12-19T02:46:10.932Z,26.50
2018-12-19T02:47:10.923Z,27.30
2018-12-19T02:48:10.914Z,28.20
2018-12-19T02:49:10.901Z,26.80
2018-12-19T02:50:10.896Z,25.50
2018-12-19T02:51:10.881Z,26.90
2018-12-19T02:52:10.871Z,27.50
2018-12-19T02:53:10.858Z,26.10
2018-12-19T02:54:10.850Z,26.80
2018-12-19T02:55:10.837Z,27.40
2018-12-19T02:56:10.830Z,25.70
2018-12-19T02:57:10.819Z,25.30
2018-12-19T02:58:10.806Z,26.80
2018-12-19T02:59:10.795Z,25.00
2018-12-19T03:00:10.790Z,24.00
2018-12-19T03:01:10.780Z,23.90
2018-12-19T03:02:10.766Z,24.50
2018-12-19T03:03:10.756Z,24.40
2018-12-19T03:04:10.745Z,25.00
2018-12-19T03:05:10.734Z,24.60
2018-12-19T03:06:10.725Z,23.90
2018-12-19T03:07:10.711Z,25.80
2018-12-19T03:08:10.703Z,24.60
2018-12-19T03:09:10.693Z,23.60
2018-12-19T03:10:10.689Z,23.50
2018-12-19T03:11:10.673Z,22.10
2018-12-19T03:12:10.661Z,23.30
2018-12-19T03:13:10.651Z,24.00
2018-12-19T03:14:10.638Z,22.80
2018-12-19T03:15:10.628Z,21.50
2018-12-19T03:16:10.618Z,22.30
2018-12-19T03:17:10.617Z,22.40
2018-12-19T03:18:10.597Z,23.40
2018-12-19T03:19:10.586Z,21.70
2018-12-19T03:20:10.576Z,23.60
2018-12-19T03:21:10.565Z,24.50
2018-12-19T03:22:10.555Z,24.00
2018-12-19T03:23:10.545Z,24.80
2018-12-19T03:24:10.534Z,22.00
2018-12-19T03:25:10.525Z,23.40
2018-12-19T03:26:10.511Z,24.20
2018-12-19T03:27:10.504Z,23.60
2018-12-19T03:28:10.491Z,21.30
2018-12-19T03:29:10.481Z,22.90
2018-12-19T03:30:10.472Z,21.80
2018-12-19T03:31:10.460Z,22.40
2018-12-19T03:32:10.454Z,21.50
2018-12-19T03:33:10.438Z,21.20
2018-12-19T03:34:10.427Z,21.20
2018-12-19T03:35:10.419Z,21.20
2018-12-19T03:36:10.409Z,21.60
2018-12-19T03:37:10.400Z,21.10
2018-12-19T03:38:10.387Z,20.60
2018-12-19T03:39:10.377Z,20.90
2018-12-19T03:40:10.367Z,21.30
2018-12-19T03:41:10.360Z,22.10
2018-12-19T03:42:10.347Z,22.20
2018-12-19T03:43:10.334Z,22.00
2018-12-19T03:44:10.335Z,21.70
2018-12-19T03:45:10.316Z,21.00
2018-12-19T03:46:10.307Z,21.30
2018-12-19T03:47:10.295Z,20.10
2018-12-19T03:48:10.287Z,21.20
2018-12-19T03:49:10.268Z,21.10
2018-12-19T03:50:10.259Z,20.60
2018-12-19T03:51:10.251Z,19.20
2018-12-19T03:52:10.237Z,20.90
2018-12-19T03:53:10.229Z,22.20
2018-12-19T03:54:10.222Z,21.10
2018-12-19T03:55:10.210Z,20.00
2018-12-19T03:56:10.198Z,20.50
2018-12-19T03:57:10.186Z,21.10
2018-12-19T03:58:10.178Z,21.70
2018-12-19T03:59:10.164Z,21.30
2018-12-19T04:00:10.155Z,21.40
2018-12-19T04:01:10.144Z,21.40
2018-12-19T04:02:10.134Z,22.40
2018-12-19T04:03:10.125Z,21.80
2018-12-19T04:04:10.115Z,22.60
2018-12-19T04:05:10.103Z,22.00
2018-12-19T04:06:10.095Z,22.50
2018-12-19T04:07:10.088Z,21.50
2018-12-19T04:08:10.073Z,22.00
2018-12-19T04:09:10.062Z,21.60
2018-12-19T04:10:10.051Z,22.10
2018-12-19T04:11:10.043Z,22.60
2018-12-19T04:12:10.031Z,20.30
2018-12-19T04:13:10.020Z,21.40
2018-12-19T04:14:10.008Z,22.30
2018-12-19T04:15:09.998Z,22.40
2018-12-19T04:16:09.994Z,22.00
2018-12-19T04:17:10.063Z,22.00
2018-12-19T04:18:09.968Z,21.10
2018-12-19T04:19:09.975Z,23.70
2018-12-19T04:20:09.952Z,21.80
2018-12-19T04:21:09.942Z,21.10
2018-12-19T04:22:09.924Z,22.10
2018-12-19T04:23:09.913Z,22.70
2018-12-19T04:24:09.903Z,21.60
2018-12-19T04:25:09.894Z,21.00
2018-12-19T04:26:09.894Z,21.60
2018-12-19T04:27:09.879Z,22.30
2018-12-19T04:28:09.864Z,22.10
2018-12-19T04:29:09.851Z,24.20
2018-12-19T04:30:09.843Z,23.90
2018-12-19T04:31:09.831Z,22.70
2018-12-19T04:32:09.824Z,22.90
2018-12-19T04:33:09.810Z,22.50
2018-12-19T04:34:09.802Z,22.00
2018-12-19T04:35:09.789Z,23.10
2018-12-19T04:36:09.781Z,22.40
2018-12-19T04:37:09.769Z,22.10
2018-12-19T04:38:09.759Z,22.00
2018-12-19T04:39:09.746Z,21.50
2018-12-19T04:40:09.735Z,21.50
2018-12-19T04:41:09.724Z,22.20
2018-12-19T04:42:09.716Z,21.50
2018-12-19T04:43:09.716Z,22.20
2018-12-19T04:44:09.701Z,21.80
2018-12-19T04:45:09.684Z,22.00
2018-12-19T04:46:09.676Z,20.80
2018-12-19T04:47:09.663Z,21.20
2018-12-19T04:48:09.659Z,21.00
2018-12-19T04:49:09.642Z,22.10
2018-12-19T04:50:09.631Z,21.60
2018-12-19T04:51:09.622Z,20.90
2018-12-19T04:52:09.612Z,20.30
2018-12-19T04:53:09.598Z,20.80
2018-12-19T04:54:09.595Z,21.10
2018-12-19T04:55:09.579Z,20.90
2018-12-19T04:56:09.571Z,22.00
2018-12-19T04:57:09.557Z,21.60
2018-12-19T04:58:09.546Z,20.80
2018-12-19T04:59:09.536Z,20.60
2018-12-19T05:00:09.532Z,20.10
2018-12-19T05:01:09.517Z,21.20
2018-12-19T05:02:09.505Z,20.50
2018-12-19T05:03:09.493Z,20.60
2018-12-19T05:04:09.482Z,22.30
2018-12-19T05:05:09.472Z,20.20
2018-12-19T05:06:09.464Z,21.20
2018-12-19T05:07:09.453Z,20.10
2018-12-19T05:08:09.440Z,21.10
2018-12-19T05:09:09.432Z,19.50
2018-12-19T05:10:12.407Z,20.30
2018-12-19T05:11:09.412Z,21.30
2018-12-19T05:12:09.401Z,20.20
2018-12-19T05:13:09.387Z,19.60
2018-12-19T05:14:09.379Z,20.40
2018-12-19T05:15:09.366Z,19.70
2018-12-19T05:16:09.357Z,18.80
2018-12-19T05:17:09.345Z,19.90
2018-12-19T05:18:09.339Z,21.20
2018-12-19T05:19:09.325Z,19.70
2018-12-19T05:20:09.320Z,19.40
2018-12-19T05:21:09.308Z,19.10
2018-12-19T05:22:09.293Z,21.30
2018-12-19T05:23:09.282Z,19.80
2018-12-19T05:24:09.271Z,19.30
2018-12-19T05:25:09.261Z,19.20
2018-12-19T05:26:09.252Z,18.90
2018-12-19T05:27:09.244Z,18.20
2018-12-19T05:28:09.232Z,18.50
2018-12-19T05:29:09.223Z,19.40
2018-12-19T05:30:09.213Z,19.20
2018-12-19T05:31:09.203Z,18.20
2018-12-19T05:32:09.193Z,18.40
2018-12-19T05:33:09.183Z,18.30
2018-12-19T05:34:09.172Z,18.80
2018-12-19T05:35:09.159Z,18.60
2018-12-19T05:36:09.182Z,17.00
2018-12-19T05:37:09.138Z,17.90
2018-12-19T05:38:09.134Z,17.50
2018-12-19T05:39:09.118Z,18.00
2018-12-19T05:40:09.106Z,16.60
2018-12-19T05:41:09.096Z,17.70
2018-12-19T05:42:09.088Z,17.60
2018-12-19T05:43:09.075Z,18.20
2018-12-19T05:44:09.065Z,17.50
2018-12-19T05:45:09.057Z,18.00
2018-12-19T05:46:09.048Z,18.00
2018-12-19T05:47:09.036Z,18.40
2018-12-19T05:48:09.027Z,18.60
2018-12-19T05:49:09.012Z,18.10
2018-12-19T05:50:09.000Z,16.90
2018-12-19T05:51:08.989Z,18.60
2018-12-19T05:52:08.981Z,17.40
2018-12-19T05:53:08.990Z,17.50
2018-12-19T05:54:08.960Z,16.80
2018-12-19T05:55:08.950Z,17.00
2018-12-19T05:56:08.938Z,17.40
2018-12-19T05:57:08.931Z,17.30
2018-12-19T05:58:08.916Z,17.70
2018-12-19T05:59:08.912Z,17.20
2018-12-19T06:00:08.900Z,16.80
2018-12-19T06:01:08.888Z,16.40
2018-12-19T06:02:08.876Z,16.90
2018-12-19T06:03:08.864Z,17.70
2018-12-19T06:04:08.852Z,16.50
2018-12-19T06:05:08.842Z,17.40
2018-12-19T06:06:08.830Z,17.30
2018-12-19T06:07:08.819Z,17.30
2018-12-19T06:08:08.811Z,16.80
2018-12-19T06:09:08.797Z,17.20
2018-12-19T06:10:08.794Z,17.20
2018-12-19T06:11:08.777Z,17.50
2018-12-19T06:12:08.767Z,15.80
2018-12-19T06:13:08.756Z,16.50
2018-12-19T06:14:08.747Z,17.30
2018-12-19T06:15:08.735Z,17.10
2018-12-19T06:16:08.727Z,17.20
2018-12-19T06:17:08.717Z,17.00
2018-12-19T06:18:08.707Z,17.10
2018-12-19T06:19:08.694Z,17.30
2018-12-19T06:20:08.682Z,17.50
2018-12-19T06:21:08.681Z,17.70
2018-12-19T06:22:08.663Z,17.20
2018-12-19T06:23:08.653Z,17.20
2018-12-19T06:24:08.640Z,17.20
2018-12-19T06:25:08.631Z,17.10
2018-12-19T06:26:08.621Z,15.80
2018-12-19T06:27:08.608Z,17.30
2018-12-19T06:28:08.658Z,16.80
2018-12-19T06:29:08.587Z,16.40
2018-12-19T06:30:08.576Z,18.10
2018-12-19T06:31:08.568Z,17.10
2018-12-19T06:32:08.558Z,17.30
2018-12-19T06:33:08.545Z,16.50
2018-12-19T06:34:08.535Z,16.60
2018-12-19T06:35:08.525Z,18.20
2018-12-19T06:36:08.513Z,17.50
2018-12-19T06:37:08.504Z,16.90
2018-12-19T06:38:08.494Z,17.40
2018-12-19T06:39:08.482Z,17.00
2018-12-19T06:40:08.471Z,17.30
2018-12-19T06:41:08.462Z,16.80
2018-12-19T06:42:08.453Z,18.10
2018-12-19T06:43:08.439Z,16.20
2018-12-19T06:44:08.429Z,17.20
2018-12-19T06:45:08.418Z,17.10
2018-12-19T06:46:08.408Z,16.80
2018-12-19T06:47:08.399Z,17.00
2018-12-19T06:48:08.391Z,17.60
2018-12-19T06:49:08.378Z,17.70
2018-12-19T06:50:08.366Z,16.90
2018-12-19T06:51:08.358Z,17.20
2018-12-19T06:52:08.344Z,16.80
2018-12-19T06:53:08.338Z,16.30
2018-12-19T06:54:08.324Z,17.00
2018-12-19T06:55:08.315Z,17.90
2018-12-19T06:56:08.307Z,17.70
2018-12-19T06:57:09.596Z,17.40
2018-12-19T06:58:08.283Z,18.10
2018-12-19T06:59:08.271Z,17.80
2018-12-19T07:00:08.264Z,17.20
2018-12-19T07:01:08.254Z,16.70
2018-12-19T07:02:08.243Z,17.10
2018-12-19T07:03:08.232Z,16.10
2018-12-19T07:04:08.220Z,17.60
2018-12-19T07:05:08.210Z,17.30
2018-12-19T07:06:08.199Z,16.10
2018-12-19T07:07:08.189Z,17.00
2018-12-19T07:08:08.180Z,16.10
2018-12-19T07:09:08.167Z,17.10
2018-12-19T07:10:08.157Z,17.40
2018-12-19T07:11:08.148Z,16.40
2018-12-19T07:12:08.136Z,17.70
2018-12-19T07:13:08.129Z,17.20
2018-12-19T07:14:08.115Z,16.40
2018-12-19T07:15:08.104Z,17.00
2018-12-19T07:16:08.093Z,17.40
2018-12-19T07:17:08.087Z,17.90
2018-12-19T07:18:08.072Z,17.10
2018-12-19T07:19:08.068Z,18.20
2018-12-19T07:20:08.053Z,17.00
2018-12-19T07:21:08.040Z,16.50
2018-12-19T07:22:08.031Z,17.10
2018-12-19T07:23:08.018Z,16.90
2018-12-19T07:24:08.011Z,17.00
2018-12-19T07:25:07.999Z,17.20
2018-12-19T07:26:07.987Z,16.60
2018-12-19T07:27:07.978Z,16.70
2018-12-19T07:28:07.970Z,16.20
2018-12-19T07:29:07.955Z,16.30
2018-12-19T07:30:07.946Z,16.20
2018-12-19T07:31:07.941Z,15.90
2018-12-19T07:32:07.925Z,17.10
2018-12-19T07:33:07.916Z,17.10
2018-12-19T07:34:07.907Z,17.20
2018-12-19T07:35:07.894Z,16.40
2018-12-19T07:36:07.881Z,16.30
2018-12-19T07:37:07.873Z,16.40
2018-12-19T07:38:07.863Z,16.70
2018-12-19T07:39:07.853Z,16.10
2018-12-19T07:40:07.840Z,15.80
2018-12-19T07:41:07.834Z,16.60
2018-12-19T07:42:07.821Z,15.90
2018-12-19T07:43:07.811Z,16.40
2018-12-19T07:44:07.799Z,16.40
2018-12-19T07:45:07.786Z,16.00
2018-12-19T07:46:07.779Z,15.70
2018-12-19T07:47:07.770Z,15.50
2018-12-19T07:48:07.755Z,16.60
2018-12-19T07:49:07.747Z,15.60
2018-12-19T07:50:07.736Z,16.10
2018-12-19T07:51:07.726Z,16.00
2018-12-19T07:52:07.716Z,15.70
2018-12-19T07:53:07.703Z,16.00
2018-12-19T07:54:07.702Z,15.70
2018-12-19T07:55:07.683Z,16.40
2018-12-19T07:56:07.671Z,16.10
2018-12-19T07:57:07.662Z,16.50
2018-12-19T07:58:07.652Z,15.70
2018-12-19T07:59:07.640Z,16.80
2018-12-19T08:00:07.631Z,15.20
2018-12-19T08:01:07.619Z,16.00
2018-12-19T08:02:07.612Z,14.90
2018-12-19T08:03:07.600Z,15.70
2018-12-19T08:04:07.594Z,16.20
2018-12-19T08:05:07.578Z,15.40
2018-12-19T08:06:07.567Z,15.30
2018-12-19T08:07:07.561Z,15.90
2018-12-19T08:08:07.548Z,15.50
2018-12-19T08:09:07.541Z,15.70
2018-12-19T08:10:07.527Z,15.70
2018-12-19T08:11:07.516Z,15.80
2018-12-19T08:12:07.504Z,15.20
2018-12-19T08:13:07.497Z,16.00
2018-12-19T08:14:07.482Z,16.70
2018-12-19T08:15:07.471Z,15.60
2018-12-19T08:16:07.462Z,15.80
2018-12-19T08:17:07.453Z,15.80
2018-12-19T08:18:07.446Z,15.80
2018-12-19T08:19:07.430Z,16.00
2018-12-19T08:20:07.419Z,15.40
2018-12-19T08:21:07.409Z,15.50
2018-12-19T08:22:07.399Z,15.10
2018-12-19T08:23:07.390Z,16.00
2018-12-19T08:24:07.378Z,15.10
2018-12-19T08:25:07.365Z,15.00
2018-12-19T08:26:07.356Z,15.80
2018-12-19T08:27:07.348Z,15.70
2018-12-19T08:28:07.335Z,14.70
2018-12-19T08:29:07.327Z,15.40
2018-12-19T08:30:07.319Z,14.60
2018-12-19T08:31:07.303Z,16.10
2018-12-19T08:32:07.293Z,15.70
2018-12-19T08:33:07.281Z,14.50
2018-12-19T08:34:07.273Z,15.90
2018-12-19T08:35:07.262Z,15.20
2018-12-19T08:36:07.253Z,15.80
2018-12-19T08:37:07.240Z,15.00
2018-12-19T08:38:07.231Z,14.40
2018-12-19T08:39:07.221Z,15.10
2018-12-19T08:40:07.209Z,15.00
2018-12-19T08:41:07.197Z,14.60
2018-12-19T08:42:07.207Z,15.10
2018-12-19T08:43:07.176Z,14.20
2018-12-19T08:44:07.179Z,14.90
2018-12-19T08:45:07.155Z,15.00
2018-12-19T08:46:07.147Z,14.60
2018-12-19T08:47:07.135Z,14.40
2018-12-19T08:48:07.125Z,15.40
2018-12-19T08:49:07.115Z,14.30
2018-12-19T08:50:07.102Z,14.70
2018-12-19T08:51:07.113Z,14.90
2018-12-19T08:52:07.083Z,14.30
2018-12-19T08:53:07.071Z,13.90
2018-12-19T08:54:07.100Z,14.20
2018-12-19T08:55:07.050Z,13.70
2018-12-19T08:56:07.039Z,14.90
2018-12-19T08:57:07.032Z,14.30
2018-12-19T08:58:07.019Z,14.70
2018-12-19T08:59:07.007Z,13.60
2018-12-19T09:00:06.997Z,14.80
2018-12-19T09:01:06.988Z,14.20
2018-12-19T09:02:06.979Z,14.50
2018-12-19T09:03:06.966Z,14.30
2018-12-19T09:04:06.975Z,14.40
2018-12-19T09:05:06.949Z,14.60
2018-12-19T09:06:06.935Z,14.50
2018-12-19T09:07:06.926Z,14.60
2018-12-19T09:08:06.918Z,14.10
2018-12-19T09:09:06.904Z,15.00
2018-12-19T09:10:06.896Z,13.70
2018-12-19T09:11:06.884Z,13.10
2018-12-19T09:12:06.872Z,14.50
2018-12-19T09:13:06.867Z,14.20
2018-12-19T09:14:06.849Z,14.30
2018-12-19T09:15:06.841Z,13.60
2018-12-19T09:16:06.828Z,13.80
2018-12-19T09:17:06.818Z,12.90
2018-12-19T09:18:06.807Z,13.00
2018-12-19T09:19:06.802Z,14.00
2018-12-19T09:20:06.787Z,13.60
2018-12-19T09:21:06.775Z,13.50
2018-12-19T09:22:06.772Z,14.60
2018-12-19T09:23:06.759Z,14.10
2018-12-19T09:24:06.743Z,13.50
2018-12-19T09:25:06.734Z,14.00
2018-12-19T09:26:06.725Z,13.60
2018-12-19T09:27:06.712Z,13.70
2018-12-19T09:28:06.703Z,13.40
2018-12-19T09:29:06.692Z,13.70
2018-12-19T09:30:06.682Z,13.90
2018-12-19T09:31:06.671Z,14.10
2018-12-19T09:32:06.659Z,13.10
2018-12-19T09:33:06.648Z,13.20
2018-12-19T09:34:06.640Z,13.10
2018-12-19T09:35:06.627Z,13.60
2018-12-19T09:36:06.632Z,14.40
2018-12-19T09:37:06.609Z,13.10
2018-12-19T09:38:06.595Z,13.90
2018-12-19T09:39:06.584Z,13.40
2018-12-19T09:40:06.574Z,13.40
2018-12-19T09:41:12.070Z,13.40
2018-12-19T09:42:07.554Z,13.70
2018-12-19T09:43:06.542Z,13.10
2018-12-19T09:44:06.536Z,12.80
2018-12-19T09:45:06.575Z,12.50
2018-12-19T09:46:06.510Z,13.30
2018-12-19T09:47:06.500Z,12.60
2018-12-19T09:48:06.493Z,12.80
2018-12-19T09:49:12.194Z,13.10
2018-12-19T09:50:07.468Z,13.60
2018-12-19T09:51:06.458Z,12.50
2018-12-19T09:52:06.449Z,13.10
2018-12-19T09:53:06.436Z,12.90
2018-12-19T09:54:06.426Z,12.60
2018-12-19T09:55:06.416Z,12.80
2018-12-19T09:56:06.404Z,12.60
2018-12-19T09:57:06.396Z,12.90
2018-12-19T09:58:06.385Z,12.80
2018-12-19T09:59:06.373Z,13.00
2018-12-19T10:00:06.365Z,13.10
2018-12-19T10:01:06.353Z,13.10
2018-12-19T10:02:06.341Z,13.10
2018-12-19T10:03:06.333Z,12.70
2018-12-19T10:04:06.322Z,12.50
2018-12-19T10:05:06.310Z,12.60
2018-12-19T10:06:06.303Z,13.00
2018-12-19T10:07:06.289Z,12.40
2018-12-19T10:08:06.277Z,13.20
2018-12-19T10:09:07.658Z,13.00
2018-12-19T10:10:07.259Z,12.90
2018-12-19T10:11:06.247Z,12.10
2018-12-19T10:12:06.235Z,12.40
2018-12-19T10:13:06.225Z,12.00
2018-12-19T10:14:06.216Z,12.60
2018-12-19T10:15:06.203Z,12.90
2018-12-19T10:16:06.196Z,12.80
2018-12-19T10:17:06.183Z,12.60
2018-12-19T10:18:06.173Z,12.40
2018-12-19T10:19:06.164Z,12.00
2018-12-19T10:20:06.151Z,11.90
2018-12-19T10:21:06.140Z,12.40
2018-12-19T10:22:06.131Z,12.60
2018-12-19T10:23:06.123Z,12.40
2018-12-19T10:24:06.108Z,12.50
2018-12-19T10:25:06.100Z,12.90
2018-12-19T10:26:06.088Z,12.80
2018-12-19T10:27:06.079Z,13.10
2018-12-19T10:28:06.072Z,12.60
2018-12-19T10:29:06.058Z,13.60
2018-12-19T10:30:06.046Z,12.30
2018-12-19T10:31:06.041Z,12.90
2018-12-19T10:32:06.029Z,13.10
2018-12-19T10:33:06.016Z,12.70
2018-12-19T10:34:06.004Z,12.10
2018-12-19T10:35:05.996Z,12.10
2018-12-19T10:36:05.982Z,12.00
2018-12-19T10:37:07.505Z,12.20
2018-12-19T10:38:05.963Z,11.80
2018-12-19T10:39:05.952Z,12.10
2018-12-19T10:40:05.942Z,11.90
2018-12-19T10:41:05.938Z,12.10
2018-12-19T10:42:05.917Z,11.60
2018-12-19T10:43:05.912Z,11.80
2018-12-19T10:44:05.896Z,11.70
2018-12-19T10:45:05.890Z,12.40
2018-12-19T10:46:05.880Z,11.70
2018-12-19T10:47:05.866Z,12.30
2018-12-19T10:48:05.857Z,11.90
2018-12-19T10:49:05.845Z,11.70
2018-12-19T10:50:05.833Z,11.70
2018-12-19T10:51:05.824Z,11.30
2018-12-19T10:52:05.816Z,11.70
2018-12-19T10:53:05.800Z,12.00
2018-12-19T10:54:05.796Z,12.00
2018-12-19T10:55:05.781Z,12.10
2018-12-19T10:56:05.771Z,12.10
2018-12-19T10:57:05.761Z,11.10
2018-12-19T10:58:05.752Z,11.80
2018-12-19T10:59:05.740Z,11.60
2018-12-19T11:00:05.729Z,11.90
2018-12-19T11:01:05.718Z,11.40
2018-12-19T11:02:05.708Z,11.90
2018-12-19T11:03:05.699Z,12.00
2018-12-19T11:04:05.687Z,11.60
2018-12-19T11:05:05.677Z,12.10
2018-12-19T11:06:05.671Z,11.50
2018-12-19T11:07:05.657Z,11.20
2018-12-19T11:08:05.644Z,12.90
2018-12-19T11:09:05.642Z,10.90
2018-12-19T11:10:05.624Z,11.80
2018-12-19T11:11:05.613Z,11.60
2018-12-19T11:12:05.602Z,11.60
2018-12-19T11:13:05.590Z,11.00
2018-12-19T11:14:05.581Z,11.80
2018-12-19T11:15:05.569Z,11.20
2018-12-19T11:16:05.559Z,11.10
2018-12-19T11:17:05.548Z,11.30
2018-12-19T11:18:05.536Z,12.20
2018-12-19T11:19:05.528Z,11.30
2018-12-19T11:20:05.522Z,12.10
2018-12-19T11:21:05.506Z,10.80
2018-12-19T11:22:05.497Z,12.30
2018-12-19T11:23:05.486Z,11.60
2018-12-19T11:24:05.472Z,11.50
2018-12-19T11:25:05.464Z,11.80
2018-12-19T11:26:05.454Z,11.70
2018-12-19T11:27:05.440Z,11.80
2018-12-19T11:28:05.433Z,11.70
2018-12-19T11:29:05.422Z,11.90
2018-12-19T11:30:05.411Z,11.90
2018-12-19T11:31:05.401Z,12.40
2018-12-19T11:32:05.390Z,12.20
2018-12-19T11:33:05.379Z,11.70
2018-12-19T11:34:05.371Z,10.60
2018-12-19T11:35:05.359Z,11.60
2018-12-19T11:36:05.353Z,11.70
2018-12-19T11:37:05.354Z,10.80
2018-12-19T11:38:05.328Z,11.80
2018-12-19T11:39:05.314Z,11.40
2018-12-19T11:40:05.305Z,11.20
2018-12-19T11:41:05.295Z,10.80
2018-12-19T11:42:05.283Z,11.40
2018-12-19T11:43:05.276Z,10.60
2018-12-19T11:44:05.263Z,11.60
2018-12-19T11:45:05.253Z,11.00
2018-12-19T11:46:05.241Z,11.20
2018-12-19T11:47:05.233Z,10.80
2018-12-19T11:48:05.221Z,11.40
2018-12-19T11:49:05.210Z,11.50
2018-12-19T11:50:05.198Z,10.80
2018-12-19T11:51:05.189Z,11.20
2018-12-19T11:52:05.176Z,11.60
2018-12-19T11:53:05.169Z,11.70
2018-12-19T11:54:05.156Z,11.70
2018-12-19T11:55:05.146Z,11.30
2018-12-19T11:56:05.137Z,11.00
2018-12-19T11:57:05.126Z,11.20
2018-12-19T11:58:05.113Z,11.40
2018-12-19T11:59:05.108Z,10.80
2018-12-19T12:00:05.094Z,11.60
2018-12-19T12:01:05.082Z,12.00
2018-12-19T12:02:05.073Z,11.60
2018-12-19T12:03:05.063Z,11.30
2018-12-19T12:04:05.049Z,11.40
2018-12-19T12:05:05.038Z,12.40
2018-12-19T12:06:05.032Z,11.10
2018-12-19T12:07:05.021Z,11.90
2018-12-19T12:08:05.007Z,11.30
2018-12-19T12:09:04.999Z,11.70
2018-12-19T12:10:04.985Z,11.70
2018-12-19T12:11:04.976Z,11.40
2018-12-19T12:12:04.966Z,11.70
2018-12-19T12:13:04.958Z,11.30
2018-12-19T12:14:04.945Z,11.30
2018-12-19T12:15:04.937Z,11.20
2018-12-19T12:16:04.924Z,11.30
2018-12-19T12:17:04.913Z,11.30
2018-12-19T12:18:04.903Z,11.70
2018-12-19T12:19:04.891Z,11.20
2018-12-19T12:20:04.881Z,11.30
2018-12-19T12:21:04.874Z,10.80
2018-12-19T12:22:04.860Z,11.50
2018-12-19T12:23:04.855Z,11.60
2018-12-19T12:24:04.838Z,11.00
2018-12-19T12:25:04.828Z,11.00
2018-12-19T12:26:04.817Z,11.00
2018-12-19T12:27:04.809Z,10.60
2018-12-19T12:28:04.810Z,11.50
2018-12-19T12:29:04.786Z,11.20
2018-12-19T12:30:04.774Z,11.10
2018-12-19T12:31:04.768Z,11.20
2018-12-19T12:32:04.754Z,11.60
2018-12-19T12:33:04.741Z,11.20
2018-12-19T12:34:04.736Z,11.80
2018-12-19T12:35:04.721Z,11.10
2018-12-19T12:36:04.710Z,11.10
2018-12-19T12:37:04.701Z,10.80
2018-12-19T12:38:04.694Z,10.50
2018-12-19T12:39:05.064Z,11.30
2018-12-19T12:40:04.670Z,10.80
2018-12-19T12:41:04.656Z,11.30
2018-12-19T12:42:04.648Z,10.80
2018-12-19T12:43:04.637Z,10.40
2018-12-19T12:44:04.626Z,10.60
2018-12-19T12:45:04.614Z,11.70
2018-12-19T12:46:04.611Z,10.60
2018-12-19T12:47:04.594Z,11.10
2018-12-19T12:48:04.585Z,11.40
2018-12-19T12:49:04.572Z,11.10
2018-12-19T12:50:04.562Z,10.90
2018-12-19T12:51:04.551Z,11.30
2018-12-19T12:52:04.551Z,10.30